Flight Track Log - Related Links

Times and Time Zones

All times are in EDT time to prevent confusion due to time zone crossing. See the UPS1143 flight status page for this flight to view local times or setup timezone preferences in your user account.


Time Position Orientation Groundspeed Altitude Reporting Facility
EDT Latitude Longitude Course Direction KTS MPH feet Rate Location/Type
Tue 11:23:32 PM 42.9440 -78.7240 56° Northeast 100 115  Level FlightAware ADS-B
Tue 11:23:36 PM 42.9430 -78.7260 236° Southwest 115 132 3,300 Level FlightAware ADS-B
Tue 11:23:38 PM 42.9420 -78.7270 216° Southwest 130 150 4,125 Level FlightAware ADS-B
Tue 11:23:52 PM 42.9350 -78.7380 229° Southwest 157 181 1,100 4,636 Climbing FlightAware ADS-B
Tue 11:24:00 PM 42.9310 -78.7430 222° Southwest 151 174 1,700 4,000 Climbing FlightAware ADS-B
Tue 11:24:04 PM 42.9290 -78.7460 228° Southwest 150 173 1,900 3,500 Climbing FlightAware ADS-B
Tue 11:24:12 PM 42.9250 -78.7520 228° Southwest 145 167 2,400 3,750 Climbing FlightAware ADS-B
Tue 11:24:20 PM 42.9220 -78.7570 231° Southwest 145 167 2,900 3,000 Climbing FlightAware ADS-B
Tue 11:24:28 PM 42.9180 -78.7630 228° Southwest 155 178 3,200 2,000 Climbing FlightAware ADS-B
Tue 11:24:32 PM 42.9160 -78.7660 228° Southwest 161 185 3,300 2,000 Climbing FlightAware ADS-B
Tue 11:24:40 PM 42.9110 -78.7720 221° Southwest 172 198 3,600 1,875 Climbing FlightAware ADS-B
Tue 11:24:48 PM 42.9060 -78.7780 221° Southwest 184 212 3,800 1,500 Climbing FlightAware ADS-B
Tue 11:24:52 PM 42.9040 -78.7810 228° Southwest 192 221 3,900 1,500 Climbing FlightAware ADS-B
Tue 11:25:00 PM 42.8980 -78.7880 221° Southwest 207 238 4,100 1,500 Climbing FlightAware ADS-B
Tue 11:25:08 PM 42.8930 -78.7950 226° Southwest 224 258 4,300 1,500 Climbing FlightAware ADS-B
Tue 11:25:16 PM 42.8860 -78.8040 223° Southwest 239 275 4,500 2,625 Climbing FlightAware ADS-B
Tue 11:25:24 PM 42.8800 -78.8120 224° Southwest 243 280 5,000 4,000 Climbing FlightAware ADS-B
Tue 11:25:28 PM 42.8760 -78.8160 216° Southwest 245 282 5,300 4,000 Climbing FlightAware ADS-B
Tue 11:25:36 PM 42.8690 -78.8250 223° Southwest 247 284 5,800 3,750 Climbing FlightAware ADS-B
Tue 11:25:44 PM 42.8630 -78.8320 221° Southwest 249 287 6,300 4,000 Climbing FlightAware ADS-B
Tue 11:25:48 PM 42.8590 -78.8370 222° Southwest 250 288 6,600 4,000 Climbing FlightAware ADS-B
Tue 11:25:56 PM 42.8520 -78.8460 223° Southwest 252 290 7,100 4,125 Climbing FlightAware ADS-B
Tue 11:26:04 PM 42.8450 -78.8540 220° Southwest 254 292 7,700 4,125 Climbing FlightAware ADS-B
Tue 11:26:12 PM 42.8380 -78.8630 223° Southwest 255 293 8,200 4,125 Climbing FlightAware ADS-B
Tue 11:26:20 PM 42.8310 -78.8720 223° Southwest 257 296 8,800 4,000 Climbing FlightAware ADS-B
Tue 11:26:24 PM 42.8270 -78.8760 216° Southwest 258 297 9,000 3,500 Climbing FlightAware ADS-B
Tue 11:26:32 PM 42.8190 -78.8850 220° Southwest 260 299 9,500 3,750 Climbing FlightAware ADS-B
Tue 11:26:40 PM 42.8120 -78.8930 220° Southwest 264 304 10,000 3,000 Climbing FlightAware ADS-B
Tue 11:26:48 PM 42.8060 -78.9010 224° Southwest 268 308 10,300 2,500 Climbing FlightAware ADS-B
Tue 11:26:52 PM 42.8020 -78.9050 216° Southwest 273 314 10,500 2,000 Climbing FlightAware ADS-B
Tue 11:27:00 PM 42.7940 -78.9150 223° Southwest 285 328 10,700 1,500 Climbing FlightAware ADS-B
Tue 11:27:08 PM 42.7860 -78.9250 223° Southwest 297 342 10,900 1,500 Climbing FlightAware ADS-B
Tue 11:27:16 PM 42.7770 -78.9340 216° Southwest 309 356 11,100 1,500 Climbing FlightAware ADS-B
Tue 11:27:20 PM 42.7720 -78.9400 221° Southwest 317 365 11,200 1,500 Climbing FlightAware ADS-B
Tue 11:27:24 PM 42.7680 -78.9460 228° Southwest 323 372 11,300 1,714 Climbing FlightAware ADS-B
Tue 11:27:34 PM 42.7560 -78.9600 221° Southwest 338 389 11,600 1,500 Climbing FlightAware ADS-B
Tue 11:27:44 PM 42.7440 -78.9740 221° Southwest 352 405 11,800 1,286 Climbing FlightAware ADS-B
Tue 11:27:48 PM 42.7390 -78.9810 226° Southwest 357 411 11,900 1,800 Climbing FlightAware ADS-B
Tue 11:27:54 PM 42.7310 -78.9890 216° Southwest 360 414 12,100 2,824 Climbing FlightAware ADS-B
Tue 11:28:05 PM 42.7190 -79.0040 223° Southwest 360 414 12,700 3,600 Climbing FlightAware ADS-B
Tue 11:28:09 PM 42.7140 -79.0100 221° Southwest 360 414 13,000 4,000 Climbing FlightAware ADS-B
Tue 11:28:17 PM 42.7040 -79.0220 221° Southwest 361 415 13,500 3,375 Climbing FlightAware ADS-B
Tue 11:28:25 PM 42.6940 -79.0350 224° Southwest 362 417 13,900 3,474 Climbing FlightAware ADS-B
Tue 11:28:55 PM 42.6550 -79.0800 220° Southwest 364 419 15,700 3,000 Climbing FlightAware ADS-B
Tue 11:29:33 PM 42.6060 -79.1390 222° Southwest 381 438 17,300 2,432 Climbing FlightAware ADS-B
Tue 11:30:09 PM 42.5580 -79.1970 222° Southwest 392 451 18,700 2,314 Climbing FlightAware ADS-B
Tue 11:30:43 PM 42.5150 -79.2550 225° Southwest 400 460 20,000 2,250 Climbing FlightAware ADS-B
Tue 11:31:21 PM 42.4700 -79.3340 232° Southwest 409 471 21,400 2,132 Climbing FlightAware ADS-B
Tue 11:31:59 PM 42.4340 -79.4190 240° Southwest 418 481 22,700 2,053 Climbing FlightAware ADS-B
Tue 11:32:37 PM 42.4020 -79.5080 244° Southwest 425 489 24,000 1,629 Climbing FlightAware ADS-B
Tue 11:33:09 PM 42.3740 -79.5860 244° Southwest 428 493 24,600 1,048 Climbing FlightAware ADS-B
Tue 11:33:40 PM 42.3410 -79.6520 236° Southwest 426 490 25,100 896 Climbing FlightAware ADS-B
Tue 11:34:16 PM 42.2950 -79.7290 231° Southwest 432 497 25,600 1,254 Climbing FlightAware ADS-B
Tue 11:34:47 PM 42.2560 -79.7920 230° Southwest 436 502 26,500 1,701 Climbing FlightAware ADS-B
Tue 11:35:23 PM 42.2110 -79.8660 231° Southwest 439 505 27,500 1,775 Climbing FlightAware ADS-B
Tue 11:35:58 PM 42.1680 -79.9370 231° Southwest 438 504 28,600 2,400 Climbing FlightAware ADS-B
Tue 11:36:33 PM 42.1210 -80.0120 230° Southwest 423 487 30,300 2,535 Climbing FlightAware ADS-B
Tue 11:37:09 PM 42.0760 -80.0850 230° Southwest 415 478 31,600 1,068 Climbing FlightAware ADS-B
Tue 11:37:46 PM 42.0310 -80.1590 231° Southwest 407 468 31,600 -696 Level FlightAware ADS-B
Tue 11:38:18 PM 41.9950 -80.2170 230° Southwest 396 456 30,800 -1,941 Descending FlightAware ADS-B
Tue 11:38:54 PM 41.9510 -80.2880 230° Southwest 395 455 29,400 -2,149 Descending FlightAware ADS-B
Tue 11:39:25 PM 41.9170 -80.3450 231° Southwest 390 449 28,400 -1,217 Descending FlightAware ADS-B
Tue 11:40:03 PM 41.8740 -80.4130 230° Southwest 386 444 28,000 -333 Descending FlightAware ADS-B
Tue 11:40:37 PM 41.8320 -80.4810 230° Southwest 405 466 28,000  Level FlightAware ADS-B
Tue 11:41:14 PM 41.7850 -80.5560 230° Southwest 429 494 28,000  Level FlightAware ADS-B
Tue 11:41:49 PM 41.7420 -80.6260 231° Southwest 438 504 28,000  Level FlightAware ADS-B
Tue 11:42:22 PM 41.6980 -80.6960 230° Southwest 438 504 28,000  Level FlightAware ADS-B
Tue 11:42:59 PM 41.6500 -80.7720 230° Southwest 437 503 28,000  Level FlightAware ADS-B
Tue 11:43:33 PM 41.6060 -80.8430 230° Southwest 436 502 28,000  Level FlightAware ADS-B
Tue 11:44:09 PM 41.5590 -80.9160 229° Southwest 435 501 28,000  Level FlightAware ADS-B
Tue 11:44:44 PM 41.5140 -80.9880 230° Southwest 434 499 28,000  Level FlightAware ADS-B
Tue 11:45:21 PM 41.4670 -81.0630 230° Southwest 433 498 28,000  Level FlightAware ADS-B
Tue 11:45:53 PM 41.4250 -81.1290 230° Southwest 432 497 28,000  Level FlightAware ADS-B
Tue 11:46:28 PM 41.3790 -81.2000 229° Southwest 432 497 28,000  Level FlightAware ADS-B
Tue 11:47:04 PM 41.3320 -81.2740 230° Southwest 432 497 28,000  Level FlightAware ADS-B
Tue 11:47:37 PM 41.2900 -81.3400 230° Southwest 434 499 28,000  Level FlightAware ADS-B
Tue 11:48:15 PM 41.2410 -81.4160 229° Southwest 432 497 28,000  Level FlightAware ADS-B
Tue 11:48:51 PM 41.1950 -81.4880 230° Southwest 429 494 28,000  Level FlightAware ADS-B
Tue 11:49:23 PM 41.1540 -81.5520 230° Southwest 429 494 28,000  Level FlightAware ADS-B
Tue 11:49:59 PM 41.1070 -81.6250 230° Southwest 430 495 28,000  Level FlightAware ADS-B
Tue 11:50:30 PM 41.0660 -81.6880 229° Southwest 429 494 28,000  Level FlightAware ADS-B
Tue 11:51:09 PM 41.0170 -81.7640 230° Southwest 430 495 28,000  Level FlightAware ADS-B
Tue 11:51:46 PM 40.9680 -81.8390 229° Southwest 430 495 28,000  Level FlightAware ADS-B
Tue 11:52:18 PM 40.9270 -81.9030 230° Southwest 429 494 28,000  Level FlightAware ADS-B
Tue 11:52:53 PM 40.8820 -81.9710 229° Southwest 428 493 28,000  Level FlightAware ADS-B
Tue 11:53:29 PM 40.8350 -82.0420 229° Southwest 427 491 28,000  Level FlightAware ADS-B
Tue 11:54:01 PM 40.7940 -82.1060 230° Southwest 427 491 28,000  Level FlightAware ADS-B
Tue 11:54:39 PM 40.7450 -82.1790 228° Southwest 426 490 28,000  Level FlightAware ADS-B
Tue 11:55:15 PM 40.6980 -82.2510 229° Southwest 425 489 28,000  Level FlightAware ADS-B
Tue 11:55:50 PM 40.6520 -82.3200 229° Southwest 425 489 28,000  Level FlightAware ADS-B
Tue 11:56:22 PM 40.6110 -82.3830 229° Southwest 424 488 28,000  Level FlightAware ADS-B
Tue 11:56:58 PM 40.5650 -82.4520 229° Southwest 423 487 28,000  Level FlightAware ADS-B
Tue 11:57:35 PM 40.5180 -82.5230 229° Southwest 425 489 28,000  Level FlightAware ADS-B
Tue 11:58:05 PM 40.4800 -82.5810 229° Southwest 425 489 28,000  Level FlightAware ADS-B
Tue 11:58:43 PM 40.4310 -82.6540 229° Southwest 425 489 28,000  Level FlightAware ADS-B
Tue 11:59:19 PM 40.3840 -82.7250 229° Southwest 425 489 28,000  Level FlightAware ADS-B
Tue 11:59:55 PM 40.3380 -82.7930 228° Southwest 424 488 28,000  Level FlightAware ADS-B
Wed 12:00:25 AM 40.3000 -82.8480 228° Southwest 424 488 28,000  Level FlightAware ADS-B
Wed 12:01:01 AM 40.2530 -82.9180 229° Southwest 427 491 28,000  Level FlightAware ADS-B
Wed 12:01:37 AM 40.2060 -82.9880 229° Southwest 429 494 28,000  Level FlightAware ADS-B
Wed 12:02:14 AM 40.1550 -83.0640 229° Southwest 427 491 28,000  Level FlightAware ADS-B
Wed 12:02:51 AM 40.1070 -83.1350 229° Southwest 426 490 28,000  Level FlightAware ADS-B
Wed 12:03:23 AM 40.0650 -83.1970 228° Southwest 427 491 28,000  Level FlightAware ADS-B
Wed 12:04:00 AM 40.0160 -83.2680 228° Southwest 429 494 28,000  Level FlightAware ADS-B
Wed 12:04:31 AM 39.9770 -83.3250 228° Southwest 429 494 28,000  Level FlightAware ADS-B
Wed 12:05:08 AM 39.9290 -83.3970 229° Southwest 431 496 28,000  Level FlightAware ADS-B
Wed 12:05:44 AM 39.8790 -83.4700 228° Southwest 430 495 28,000  Level FlightAware ADS-B
Wed 12:06:20 AM 39.8310 -83.5390 228° Southwest 429 494 28,000  Level FlightAware ADS-B
Wed 12:06:52 AM 39.7880 -83.6010 228° Southwest 428 493 28,000  Level FlightAware ADS-B
Wed 12:07:28 AM 39.7410 -83.6690 228° Southwest 427 491 28,000  Level FlightAware ADS-B
Wed 12:08:05 AM 39.6940 -83.7380 228° Southwest 427 491 28,000  Level FlightAware ADS-B
Wed 12:08:38 AM 39.6490 -83.8040 228° Southwest 427 491 28,000  Level FlightAware ADS-B
Wed 12:09:13 AM 39.6040 -83.8680 228° Southwest 427 491 28,000  Level FlightAware ADS-B
Wed 12:09:58 AM 39.5440 -83.9540 228° Southwest 426 490 28,000  Level FlightAware ADS-B
Wed 12:10:30 AM 39.5010 -84.0150 228° Southwest 425 489 28,000  Level FlightAware ADS-B
Wed 12:11:15 AM 39.4480 -84.0920 228° Southwest 424 488 28,000  Level FlightAware ADS-B
Wed 12:11:54 AM 39.4040 -84.1540 227° Southwest 424 488 28,000  Level FlightAware ADS-B
Wed 12:12:31 AM 39.3630 -84.2140 229° Southwest 424 488 28,000  Level FlightAware ADS-B
Wed 12:13:07 AM 39.3230 -84.2710 228° Southwest 424 488 28,000  Level FlightAware ADS-B
Wed 12:13:43 AM 39.2830 -84.3290 228° Southwest 424 488 28,000 -1,800 Level FlightAware ADS-B
Wed 12:14:17 AM 39.2020 -84.4410 227° Southwest 430 495 25,900 -3,081 Descending FlightAware ADS-B
Wed 12:14:57 AM 39.1480 -84.5180 228° Southwest 424 488 24,200 -1,301 Descending FlightAware ADS-B
Wed 12:15:40 AM 39.0980 -84.5860 227° Southwest 424 488 24,100 -2,690 Descending FlightAware ADS-B
Wed 12:16:24 AM 39.0340 -84.6770 228° Southwest 404 465 20,300 -3,261 Descending FlightAware ADS-B
Wed 12:17:12 AM 38.9750 -84.7460 222° Southwest 408 470 19,100 -857 Descending FlightAware ADS-B
Wed 12:17:48 AM 38.9320 -84.7950 222° Southwest 408 470 19,100  Level FlightAware ADS-B
Wed 12:18:24 AM 38.8880 -84.8440 221° Southwest 408 470 19,100  Level FlightAware ADS-B
Wed 12:19:00 AM 38.8440 -84.8920 220° Southwest 408 470 19,100  Level FlightAware ADS-B
Wed 12:19:36 AM 38.8010 -84.9410 222° Southwest 408 470 19,100  Level FlightAware ADS-B
Wed 12:20:12 AM 38.7570 -84.9890 220° Southwest 408 470 19,100 -2,747 Level FlightAware ADS-B
Wed 12:22:22 AM 38.5340 -85.1700 212° Southwest 332 382 11,500 -2,857 Descending FlightAware ADS-B
Wed 12:23:00 AM 38.4890 -85.2120 216° Southwest 303 349 11,100 -651 Descending FlightAware ADS-B
Wed 12:23:45 AM 38.4410 -85.2580 217° Southwest 277 319 10,600 -930 Descending FlightAware ADS-B
Wed 12:24:11 AM 38.4140 -85.2830 216° Southwest 277 319 10,000 -1,350 Descending FlightAware ADS-B
Wed 12:24:25 AM 38.4000 -85.2960 216° Southwest 277 319 9,700 -419 Descending FlightAware ADS-B
Wed 12:24:54 AM 38.3750 -85.3200 217° Southwest 277 319 9,700 -1,179 Level FlightAware ADS-B
Wed 12:25:21 AM 38.3440 -85.3500 217° Southwest 265 305 8,600 -1,953 Descending FlightAware ADS-B
Wed 12:25:37 AM 38.3290 -85.3650 218° Southwest 263 303 8,300 -1,167 Descending FlightAware ADS-B
Wed 12:25:57 AM 38.3080 -85.3840 215° Southwest 262 302 7,900 -1,200 Descending FlightAware ADS-B
Wed 12:26:17 AM 38.2890 -85.4030 218° Southwest 257 296 7,500 -1,200 Descending FlightAware ADS-B
Wed 12:26:37 AM 38.2700 -85.4200 215° Southwest 254 292 7,100 -1,200 Descending FlightAware ADS-B
Wed 12:26:57 AM 38.2520 -85.4380 218° Southwest 252 290 6,700 -1,350 Descending FlightAware ADS-B
Wed 12:27:17 AM 38.2320 -85.4570 217° Southwest 248 285 6,200 -1,364 Descending FlightAware ADS-B
Wed 12:27:41 AM 38.2110 -85.4770 217° Southwest 246 283 5,700 -1,227 Descending FlightAware ADS-B
Wed 12:28:01 AM 38.1930 -85.4940 217° Southwest 246 283 5,300 -1,313 Descending FlightAware ADS-B
Wed 12:28:13 AM 38.1810 -85.5050 216° Southwest 245 282 5,000 -1,313 Descending FlightAware ADS-B
Wed 12:28:33 AM 38.1630 -85.5220 217° Southwest 245 282 4,600 -1,227 Descending FlightAware ADS-B
Wed 12:28:57 AM 38.1410 -85.5430 217° Southwest 240 276 4,100 -1,000 Descending FlightAware ADS-B
Wed 12:29:09 AM 38.1300 -85.5530 216° Southwest 232 267 4,000 -167 Descending FlightAware ADS-B
Wed 12:29:33 AM 38.1110 -85.5720 218° Southwest 213 245 4,000  Level FlightAware ADS-B
Wed 12:29:45 AM 38.1010 -85.5770 201° Southwest 213 245 4,000  Level FlightAware ADS-B
Wed 12:29:51 AM 38.0960 -85.5780 189° South 216 249 4,000 -643 Level FlightAware ADS-B
Wed 12:30:13 AM 38.0730 -85.5720 168° South 217 250 3,700 -857 Descending FlightAware ADS-B
Wed 12:30:33 AM 38.0540 -85.5660 166° South 214 246 3,400 -818 Descending FlightAware ADS-B
Wed 12:30:57 AM 38.0320 -85.5590 166° South 210 242 3,100 -643 Descending FlightAware ADS-B
Wed 12:31:01 AM 38.0270 -85.5580 171° South 202 232 3,100 -214 Level FlightAware ADS-B
Wed 12:31:25 AM 38.0100 -85.5680 205° Southwest 192 221 3,000 -214 Descending FlightAware ADS-B
Wed 12:31:29 AM 38.0070 -85.5740 238° Southwest 195 224 3,000  Level FlightAware ADS-B
Wed 12:31:37 AM 38.0060 -85.5830 262° West 199 229 3,000  Level FlightAware ADS-B
Wed 12:31:57 AM 38.0090 -85.6060 279° West 184 212 3,000  Level FlightAware ADS-B
Wed 12:32:15 AM 38.0120 -85.6230 283° West 178 205 3,000  Level FlightAware ADS-B
Wed 12:32:41 AM 38.0180 -85.6500 286° West 178 205 3,000 -353 Level FlightAware ADS-B
Wed 12:32:49 AM 38.0220 -85.6570 306° West 188 216 2,800 -857 Descending FlightAware ADS-B
Wed 12:33:09 AM 38.0350 -85.6700 322° Northwest 189 217 2,600 -450 Descending FlightAware ADS-B
Wed 12:33:29 AM 38.0500 -85.6830 326° Northwest 185 213 2,500 -176 Descending FlightAware ADS-B
Wed 12:33:43 AM 38.0600 -85.6880 339° North 191 220 2,500 -667 Level FlightAware ADS-B
Wed 12:34:05 AM 38.0800 -85.6950 345° North 192 221 2,100 -1,000 Descending FlightAware ADS-B
Wed 12:34:25 AM 38.0970 -85.7000 347° North 173 199 1,800 -900 Descending FlightAware ADS-B
Wed 12:34:45 AM 38.1110 -85.7050 344° North 152 175 1,500 -714 Descending FlightAware ADS-B
Wed 12:35:07 AM 38.1250 -85.7100 344° North 141 162 1,300 -652 Descending FlightAware ADS-B
Wed 12:35:31 AM 38.1400 -85.7150 345° North 141 162 1,000 -682 Descending FlightAware ADS-B
Wed 12:35:51 AM 38.1530 -85.7190 346° North 139 160 800 -750 Descending FlightAware ADS-B
Wed 12:36:11 AM 38.1660 -85.7240 343° North 138 159 500 -900 Descending FlightAware ADS-B
Wed 12:36:27 AM 38.1730 -85.7270 341° North 120 138 -1,875 Descending FlightAware ADS-B

Login

Don't have an account? Register now (free) for customized features, flight alerts, and more!